SAEZ/EZE METAR and TAF weather

Enter ICAO airport designator
Station Type Date Time Source
SAEZ METAR 2019/06/18 05:00 UTC NOAA

SAEZ 180500Z 25003KT 5000 -TSRA BKN003 OVC007 FEW040CB 12/12 Q1012 NOSIG


Station Type Date Time Source
SAEZ Decoded METAR 2019/06/18 05:00 UTC NOAA

Ezeiza Aerodrome, Argentina (SAEZ) 34-49S 058-32W 20M
Jun 18, 2019 - 01:00 AM EDT / 2019.06.18 0500 UTC
Wind: from the WSW (250 degrees) at 3 MPH (3 KT):0
Visibility: 3 mile(s):0
Sky conditions: overcast
Weather: light rain with thunder; Cumulonimbus clouds observed
Temperature: 53 F (12 C)
Dew Point: 53 F (12 C)
Relative Humidity: 100%
Pressure (altimeter): 29.88 in. Hg (1012 hPa)
ob: SAEZ 180500Z 25003KT 5000 -TSRA BKN003 OVC007 FEW040CB 12/12 Q1012 NOSIG
cycle: 5

Station Type Date Time Source
SAEZ TAF 2019/06/18 06:18 UTC NOAA

TAF TAF SAEZ 180500Z 1806/1906 29010KT 4000 -TSRA BKN003 OVC008 FEW040CB OVC040 TX13/1818Z TN10/1811Z
TEMPO 1807/1810 5000 -RADZ BKN004 OVC040
BECMG 1811/1814 29015KT 9999 SCT015 BKN025
BECMG 1816/1820 30015G25KT SCT025
BECMG 1902/1904 27020KT CAVOK

Example: see airport list